Time;durP1;ratioP1;P1;durP2;ratioP2;P2;SDS_P1;SDS_P2;PMS_P1;PMS_P2;Temp;Humidity;BMP_temperature;BMP_pressure;BME280_temperature;BME280_humidity;BME280_pressure;Samples;Min_cycle;Max_cycle;Signal;HPM_P1;HPM_P2
2022/06/09 00:01:39;;;;;;;12.53;4.83;;;13.40;99.90;;;;;;5072235;28;20228;-65
2022/06/09 00:04:10;;;;;;;13.77;5.50;;;13.40;99.90;;;;;;5072416;28;20256;-64
2022/06/09 00:06:40;;;;;;;15.97;5.10;;;13.40;99.90;;;;;;5071731;28;20604;-64
2022/06/09 00:09:09;;;;;;;13.80;5.33;;;13.40;99.90;;;;;;5072236;28;20337;-64
2022/06/09 00:11:39;;;;;;;15.20;5.13;;;13.40;99.90;;;;;;5072295;28;20207;-64
2022/06/09 00:14:08;;;;;;;10.97;4.97;;;13.40;99.90;;;;;;5072339;28;20792;-62
2022/06/09 00:16:35;;;;;;;14.23;5.03;;;13.30;99.90;;;;;;5071767;28;20216;-62
2022/06/09 00:19:02;;;;;;;7.67;5.00;;;13.30;99.90;;;;;;5071977;28;20255;-63
2022/06/09 00:21:29;;;;;;;15.30;5.70;;;13.30;99.90;;;;;;5071943;28;20227;-63
2022/06/09 00:23:55;;;;;;;12.73;5.10;;;13.30;99.90;;;;;;5072056;28;20224;-63
2022/06/09 00:26:23;;;;;;;12.80;5.30;;;13.30;99.90;;;;;;5071826;28;20205;-62
2022/06/09 00:28:50;;;;;;;7.93;4.70;;;13.30;99.90;;;;;;5072073;28;20838;-63
2022/06/09 00:31:17;;;;;;;15.30;4.43;;;13.30;99.90;;;;;;5071987;28;20201;-64
2022/06/09 00:33:44;;;;;;;11.93;4.93;;;13.30;99.90;;;;;;5071896;28;20213;-62
2022/06/09 00:36:11;;;;;;;6.40;4.07;;;13.30;99.90;;;;;;5071232;28;20269;-63
2022/06/09 00:38:37;;;;;;;14.90;4.37;;;13.30;99.90;;;;;;5072105;28;20209;-63
2022/06/09 00:41:04;;;;;;;14.20;4.60;;;13.30;99.90;;;;;;5073454;28;20217;-64
2022/06/09 00:43:33;;;;;;;14.77;4.93;;;13.20;99.90;;;;;;5073776;28;20258;-65
2022/06/09 00:46:07;;;;;;;14.23;4.23;;;13.20;99.90;;;;;;5074568;28;20212;-64
2022/06/09 00:48:43;;;;;;;14.70;5.47;;;13.20;99.90;;;;;;5071774;28;20205;-63
2022/06/09 00:51:33;;;;;;;11.47;4.20;;;13.20;99.90;;;;;;5071766;28;20261;-64
2022/06/09 00:54:17;;;;;;;12.20;4.23;;;13.30;99.90;;;;;;5071746;28;20278;-63
2022/06/09 00:56:51;;;;;;;9.47;4.00;;;13.30;99.90;;;;;;5071171;28;20254;-64
2022/06/09 00:59:22;;;;;;;10.27;4.17;;;13.30;99.90;;;;;;5071892;28;20208;-64
2022/06/09 01:01:49;;;;;;;9.60;3.67;;;13.30;99.90;;;;;;5075342;28;20261;-64
2022/06/09 01:04:17;;;;;;;11.37;3.97;;;13.30;99.90;;;;;;5075512;28;20278;-63
2022/06/09 01:06:47;;;;;;;11.73;4.40;;;13.30;99.90;;;;;;5075306;28;20284;-64
2022/06/09 01:09:17;;;;;;;11.13;4.30;;;13.30;99.90;;;;;;5075585;28;20204;-63
2022/06/09 01:11:47;;;;;;;10.90;4.07;;;13.40;99.90;;;;;;5075862;28;20208;-64
2022/06/09 01:14:16;;;;;;;11.77;3.93;;;13.40;99.90;;;;;;5075386;28;20315;-63
2022/06/09 01:17:05;;;;;;;13.80;3.93;;;13.40;99.90;;;;;;5075219;28;20274;-64
2022/06/09 01:20:04;;;;;;;9.93;3.80;;;13.40;99.90;;;;;;5075419;28;20270;-64
2022/06/09 01:23:05;;;;;;;11.07;3.83;;;13.40;99.90;;;;;;5075605;28;20231;-64
2022/06/09 01:26:05;;;;;;;10.23;3.70;;;13.40;99.90;;;;;;5075053;28;20269;-63
2022/06/09 01:29:00;;;;;;;9.53;3.43;;;13.50;99.90;;;;;;5075612;28;20213;-63
2022/06/09 01:31:35;;;;;;;10.87;3.13;;;13.40;99.90;;;;;;5073812;28;20201;-62
2022/06/09 01:34:11;;;;;;;13.63;3.80;;;13.50;99.90;;;;;;5075417;28;20227;-64
2022/06/09 01:36:41;;;;;;;12.20;3.40;;;13.50;99.90;;;;;;5074657;28;20258;-64
2022/06/09 01:39:08;;;;;;;8.27;3.27;;;13.50;99.90;;;;;;5074742;28;20743;-65
2022/06/09 01:41:36;;;;;;;8.00;3.00;;;13.50;99.90;;;;;;5075063;28;20286;-63
2022/06/09 01:44:03;;;;;;;10.33;2.83;;;13.50;99.90;;;;;;5074913;28;20290;-65
2022/06/09 01:46:34;;;;;;;7.80;3.10;;;13.40;99.90;;;;;;5074985;28;20209;-63
2022/06/09 01:49:06;;;;;;;9.70;2.93;;;13.50;99.90;;;;;;5074720;28;20635;-64
2022/06/09 01:51:37;;;;;;;5.90;2.60;;;13.50;99.90;;;;;;5075050;28;20205;-64
2022/06/09 01:54:07;;;;;;;8.53;3.37;;;13.50;99.90;;;;;;5074747;28;20569;-63
2022/06/09 01:56:39;;;;;;;10.20;3.10;;;13.50;99.90;;;;;;5074602;28;20213;-63
2022/06/09 01:59:09;;;;;;;10.70;3.03;;;13.50;99.90;;;;;;5075025;28;20213;-63
2022/06/09 02:01:40;;;;;;;9.63;3.13;;;13.40;99.90;;;;;;5074386;28;20645;-63
2022/06/09 02:04:13;;;;;;;7.53;2.40;;;13.40;99.90;;;;;;5074682;28;20221;-64
2022/06/09 02:06:43;;;;;;;8.27;3.13;;;13.40;99.90;;;;;;5074184;28;20296;-63
2022/06/09 02:09:09;;;;;;;9.50;3.03;;;13.40;99.90;;;;;;5074633;28;20208;-64
2022/06/09 02:11:46;;;;;;;7.37;2.80;;;13.40;99.90;;;;;;5074216;28;20204;-64
2022/06/09 02:14:13;;;;;;;10.33;2.83;;;13.40;99.90;;;;;;5074403;28;20228;-62
2022/06/09 02:16:42;;;;;;;10.27;3.03;;;13.40;99.90;;;;;;5074149;28;20213;-62
2022/06/09 02:19:08;;;;;;;12.27;2.90;;;13.40;99.90;;;;;;5074402;28;20205;-62
2022/06/09 02:21:39;;;;;;;15.27;3.40;;;13.30;99.90;;;;;;5074304;28;20221;-64
2022/06/09 02:24:06;;;;;;;9.30;3.10;;;13.30;99.90;;;;;;5074103;28;20224;-64
2022/06/09 02:26:32;;;;;;;10.03;3.10;;;13.30;99.90;;;;;;5073821;28;20201;-62
2022/06/09 02:28:59;;;;;;;10.23;2.80;;;13.30;99.90;;;;;;5074206;28;20208;-62
2022/06/09 02:31:26;;;;;;;8.00;3.10;;;13.30;99.90;;;;;;5074313;28;20209;-63
2022/06/09 02:33:55;;;;;;;13.63;3.57;;;13.30;99.90;;;;;;5074035;28;20225;-63
2022/06/09 02:36:22;;;;;;;8.30;3.70;;;13.30;99.90;;;;;;5073700;28;20318;-63
2022/06/09 02:38:49;;;;;;;6.63;3.13;;;13.30;99.90;;;;;;5073979;28;20671;-63
2022/06/09 02:41:16;;;;;;;15.10;3.33;;;13.40;99.90;;;;;;5073597;28;20866;-64
2022/06/09 02:43:43;;;;;;;14.17;3.60;;;13.40;99.90;;;;;;5073984;28;20209;-63
2022/06/09 02:46:10;;;;;;;12.73;3.83;;;13.30;99.90;;;;;;5073564;28;20205;-63
2022/06/09 02:48:37;;;;;;;10.97;3.53;;;13.30;99.90;;;;;;5073963;28;20216;-64
2022/06/09 02:51:22;;;;;;;12.83;3.87;;;13.30;99.90;;;;;;5073738;28;20212;-64
2022/06/09 02:53:49;;;;;;;9.17;4.03;;;13.30;99.90;;;;;;5073729;28;20718;-63
2022/06/09 02:56:16;;;;;;;11.63;4.00;;;13.30;99.90;;;;;;5073580;28;20208;-62
2022/06/09 02:58:43;;;;;;;8.37;3.93;;;13.40;99.90;;;;;;5073638;28;20215;-63
2022/06/09 03:01:09;;;;;;;10.87;3.80;;;13.30;99.90;;;;;;5073553;28;20211;-63
2022/06/09 03:03:36;;;;;;;13.30;4.47;;;13.30;99.90;;;;;;5073114;28;20229;-65
2022/06/09 03:06:03;;;;;;;10.40;4.50;;;13.30;99.90;;;;;;5073035;28;20204;-64
2022/06/09 03:08:31;;;;;;;11.30;4.83;;;13.30;99.90;;;;;;5073516;28;20228;-63
2022/06/09 03:10:58;;;;;;;11.90;4.43;;;13.30;99.90;;;;;;5073539;28;20274;-63
2022/06/09 03:13:25;;;;;;;22.53;5.33;;;13.30;99.90;;;;;;5073502;28;20205;-63
2022/06/09 03:15:52;;;;;;;14.60;4.87;;;13.30;99.90;;;;;;5073056;28;20294;-64
2022/06/09 03:18:19;;;;;;;11.87;5.60;;;13.20;99.90;;;;;;5073175;28;20209;-64
2022/06/09 03:20:47;;;;;;;12.53;5.17;;;13.30;99.90;;;;;;5072870;28;20208;-62
2022/06/09 03:23:14;;;;;;;10.97;5.07;;;13.30;99.90;;;;;;5072613;28;20228;-63
2022/06/09 03:25:43;;;;;;;10.67;5.47;;;13.20;99.90;;;;;;5073059;28;20225;-62
2022/06/09 03:28:11;;;;;;;15.90;5.03;;;13.20;99.90;;;;;;5072805;28;20566;-62
2022/06/09 03:30:37;;;;;;;11.13;5.43;;;13.20;99.90;;;;;;5072992;28;20262;-63
2022/06/09 03:33:04;;;;;;;20.43;4.80;;;13.20;99.90;;;;;;5072790;28;20207;-62
2022/06/09 03:35:31;;;;;;;15.33;5.40;;;13.30;99.90;;;;;;5072813;28;20566;-64
2022/06/09 03:37:58;;;;;;;19.30;5.17;;;13.30;99.90;;;;;;5072612;28;20205;-63
2022/06/09 03:40:28;;;;;;;12.73;4.90;;;13.30;99.90;;;;;;5072906;28;20209;-63
2022/06/09 03:42:56;;;;;;;11.93;4.40;;;13.20;99.90;;;;;;5072466;28;20221;-63
2022/06/09 03:45:22;;;;;;;11.53;4.57;;;13.20;99.90;;;;;;5072886;28;20229;-62
2022/06/09 03:47:49;;;;;;;15.27;4.57;;;13.20;99.90;;;;;;5071952;28;20213;-62
2022/06/09 03:50:19;;;;;;;12.07;4.43;;;13.20;99.90;;;;;;5072736;28;20705;-63
2022/06/09 03:52:46;;;;;;;15.13;5.20;;;13.20;99.90;;;;;;5072728;28;20258;-63
2022/06/09 03:55:13;;;;;;;19.67;5.70;;;13.20;99.90;;;;;;5072397;28;20289;-64
2022/06/09 03:57:40;;;;;;;18.37;5.83;;;13.20;99.90;;;;;;5072461;28;20266;-63
2022/06/09 04:00:13;;;;;;;13.73;5.97;;;13.20;99.90;;;;;;5072277;28;20213;-63
2022/06/09 04:02:40;;;;;;;17.07;5.53;;;13.20;99.90;;;;;;5072564;28;20229;-63
2022/06/09 04:05:07;;;;;;;17.87;6.47;;;13.20;99.90;;;;;;5072258;28;20225;-62
2022/06/09 04:07:34;;;;;;;22.20;6.60;;;13.20;99.90;;;;;;5072131;28;20216;-62
2022/06/09 04:10:01;;;;;;;12.50;5.87;;;13.20;99.90;;;;;;5072360;28;20258;-62
2022/06/09 04:12:28;;;;;;;13.60;6.13;;;13.20;99.90;;;;;;5072251;28;20230;-62
2022/06/09 04:14:55;;;;;;;17.87;7.10;;;13.20;99.90;;;;;;5071998;28;20235;-63
2022/06/09 04:17:23;;;;;;;17.87;7.87;;;13.30;99.90;;;;;;5071798;28;20209;-62
2022/06/09 04:19:49;;;;;;;16.63;7.60;;;13.30;99.90;;;;;;5072555;28;20205;-62
2022/06/09 04:22:16;;;;;;;16.43;8.40;;;13.30;99.90;;;;;;5072065;28;20225;-62
2022/06/09 04:24:43;;;;;;;20.90;8.33;;;13.30;99.90;;;;;;5071910;28;20235;-63
2022/06/09 04:27:10;;;;;;;23.60;9.17;;;13.30;99.90;;;;;;5071874;28;20216;-62
2022/06/09 04:29:36;;;;;;;25.43;9.40;;;13.30;99.90;;;;;;5071893;28;20208;-64
2022/06/09 04:32:04;;;;;;;24.20;9.83;;;13.40;99.90;;;;;;5071929;28;20204;-62
2022/06/09 04:34:32;;;;;;;21.03;9.70;;;13.40;99.90;;;;;;5071122;28;20229;-63
2022/06/09 04:36:59;;;;;;;27.83;10.47;;;13.40;99.90;;;;;;5071469;28;20208;-64
2022/06/09 04:39:25;;;;;;;23.43;11.47;;;13.30;99.90;;;;;;5069747;28;20266;-64
2022/06/09 04:41:52;;;;;;;24.97;11.13;;;13.30;99.90;;;;;;5071294;28;20200;-63
2022/06/09 04:44:19;;;;;;;22.57;11.53;;;13.30;99.90;;;;;;5071691;28;20250;-64
2022/06/09 04:46:45;;;;;;;27.37;12.77;;;13.30;99.90;;;;;;5071123;28;20255;-63
2022/06/09 04:49:12;;;;;;;31.87;13.87;;;13.30;99.90;;;;;;5071580;28;20216;-64
2022/06/09 04:51:40;;;;;;;26.03;12.27;;;13.30;99.90;;;;;;5071279;28;20687;-65
2022/06/09 04:54:07;;;;;;;33.43;13.37;;;13.30;99.90;;;;;;5071332;28;20741;-63
2022/06/09 04:56:34;;;;;;;22.70;13.87;;;13.30;99.90;;;;;;5070738;28;20204;-63
2022/06/09 04:59:01;;;;;;;26.23;12.77;;;13.30;99.90;;;;;;5071637;28;20216;-65
2022/06/09 05:01:29;;;;;;;29.83;13.23;;;13.30;99.90;;;;;;5072321;28;20745;-64
2022/06/09 05:03:57;;;;;;;28.63;13.07;;;13.30;99.90;;;;;;5072176;28;20240;-64
2022/06/09 05:06:25;;;;;;;24.00;13.37;;;13.30;99.90;;;;;;5072096;28;20260;-64
2022/06/09 05:08:55;;;;;;;29.97;14.33;;;13.30;99.90;;;;;;5071018;28;20217;-64
2022/06/09 05:11:22;;;;;;;30.37;14.17;;;13.40;99.90;;;;;;5071394;28;20757;-64
2022/06/09 05:13:49;;;;;;;32.27;13.53;;;13.40;99.90;;;;;;5071132;28;20236;-63
2022/06/09 05:16:16;;;;;;;23.97;13.10;;;13.40;99.90;;;;;;5070799;28;20209;-64
2022/06/09 05:18:43;;;;;;;29.20;12.43;;;13.40;99.90;;;;;;5071852;28;20671;-64
2022/06/09 05:21:10;;;;;;;27.00;13.10;;;13.40;99.90;;;;;;5070994;28;20612;-64
2022/06/09 05:23:38;;;;;;;22.13;13.70;;;13.50;99.90;;;;;;5071207;28;20228;-64
2022/06/09 05:26:07;;;;;;;28.23;13.83;;;13.50;99.90;;;;;;5071109;28;20298;-64
2022/06/09 05:28:34;;;;;;;23.53;12.43;;;13.50;99.90;;;;;;5068434;28;20242;-64
2022/06/09 05:31:02;;;;;;;28.30;13.00;;;13.50;99.90;;;;;;5065780;28;20205;-66
2022/06/09 05:33:29;;;;;;;22.43;12.17;;;13.60;99.90;;;;;;5070609;28;20291;-65
2022/06/09 05:35:57;;;;;;;21.33;12.17;;;13.60;99.90;;;;;;5070348;28;20251;-65
2022/06/09 05:46:39;;;;;;;29.37;14.00;;;13.80;99.90;;;;;;5071718;28;20326;-64
2022/06/09 05:49:08;;;;;;;28.10;14.27;;;13.80;99.90;;;;;;5074138;28;20235;-64
2022/06/09 05:51:35;;;;;;;27.10;14.23;;;13.90;99.90;;;;;;5073921;28;20227;-63
2022/06/09 05:54:02;;;;;;;22.20;13.23;;;13.90;99.90;;;;;;5074347;28;20787;-63
2022/06/09 05:56:30;;;;;;;27.33;14.67;;;14.00;99.90;;;;;;5073598;28;20205;-63
2022/06/09 05:58:57;;;;;;;25.57;13.80;;;14.00;99.90;;;;;;5073945;28;20201;-64
2022/06/09 06:01:24;;;;;;;27.67;13.97;;;14.10;99.90;;;;;;5073808;28;20278;-69
2022/06/09 06:03:50;;;;;;;33.27;14.83;;;14.00;99.90;;;;;;5073774;28;20274;-65
2022/06/09 06:06:35;;;;;;;25.13;13.80;;;14.00;99.90;;;;;;5073753;28;20717;-65
2022/06/09 06:09:04;;;;;;;30.17;14.20;;;14.00;99.90;;;;;;5073743;28;20213;-66
2022/06/09 06:11:33;;;;;;;28.43;14.20;;;14.10;99.90;;;;;;5073492;28;20232;-66
2022/06/09 06:14:00;;;;;;;25.13;14.33;;;14.00;99.90;;;;;;5073767;28;20274;-67
2022/06/09 06:16:27;;;;;;;27.17;14.27;;;14.10;99.90;;;;;;5073682;28;20298;-66
2022/06/09 06:18:54;;;;;;;29.30;14.70;;;14.10;99.90;;;;;;5073783;28;20346;-67
2022/06/09 06:21:21;;;;;;;25.77;15.00;;;14.10;99.90;;;;;;5073386;28;20205;-65
2022/06/09 06:23:48;;;;;;;27.70;14.57;;;14.20;99.90;;;;;;5073900;28;20248;-62
2022/06/09 06:26:16;;;;;;;25.63;13.87;;;14.20;99.90;;;;;;5072777;28;20270;-62
2022/06/09 06:28:44;;;;;;;28.77;14.27;;;14.30;99.90;;;;;;5073680;28;20212;-62
2022/06/09 06:31:11;;;;;;;26.83;15.73;;;14.30;99.90;;;;;;5073484;28;20205;-62
2022/06/09 06:33:37;;;;;;;31.80;15.37;;;14.30;99.90;;;;;;5073482;28;20208;-66
2022/06/09 06:36:05;;;;;;;30.67;14.53;;;14.30;99.90;;;;;;5073231;28;20213;-63
2022/06/09 06:38:32;;;;;;;31.53;15.77;;;14.40;99.90;;;;;;5072787;28;20213;-65
2022/06/09 06:41:00;;;;;;;29.80;16.67;;;14.50;99.90;;;;;;5072999;28;20320;-65
2022/06/09 06:43:26;;;;;;;28.03;16.13;;;14.50;99.90;;;;;;5073673;28;20220;-67
2022/06/09 06:45:54;;;;;;;28.93;15.83;;;14.50;99.90;;;;;;5072527;28;20286;-68
2022/06/09 06:48:21;;;;;;;31.73;15.50;;;14.50;99.90;;;;;;5073392;28;20254;-67
2022/06/09 06:50:47;;;;;;;30.60;15.13;;;14.60;99.90;;;;;;5072464;28;20204;-69
2022/06/09 06:53:14;;;;;;;22.83;14.13;;;14.60;99.90;;;;;;5072806;28;20254;-68
2022/06/09 06:55:43;;;;;;;27.70;15.57;;;14.60;99.90;;;;;;5073278;28;20233;-67
2022/06/09 06:58:10;;;;;;;27.53;16.60;;;14.60;99.90;;;;;;5071676;28;20231;-67
2022/06/09 07:00:36;;;;;;;26.80;15.43;;;14.60;99.90;;;;;;5073149;28;20217;-69
2022/06/09 07:03:06;;;;;;;34.00;17.03;;;14.70;99.90;;;;;;5072325;28;20236;-68
2022/06/09 07:05:33;;;;;;;32.53;16.20;;;14.60;99.90;;;;;;5072957;28;20583;-67
2022/06/09 07:07:59;;;;;;;28.17;16.50;;;14.60;99.90;;;;;;5072572;28;20274;-67
2022/06/09 07:10:26;;;;;;;29.93;16.27;;;14.70;99.90;;;;;;5072777;28;20200;-69
2022/06/09 07:12:53;;;;;;;34.73;16.93;;;14.70;99.90;;;;;;5072740;28;20213;-68
2022/06/09 07:15:20;;;;;;;29.47;17.20;;;14.80;99.90;;;;;;5072395;28;20298;-67
2022/06/09 07:17:46;;;;;;;24.53;16.07;;;14.80;99.90;;;;;;5072529;28;20211;-68
2022/06/09 07:20:16;;;;;;;30.47;16.77;;;14.80;99.90;;;;;;5072398;28;20216;-69
2022/06/09 07:22:43;;;;;;;30.73;16.23;;;14.80;99.90;;;;;;5072302;28;20212;-67
2022/06/09 07:25:12;;;;;;;27.07;15.53;;;14.90;99.90;;;;;;5072577;28;20286;-68
2022/06/09 07:27:39;;;;;;;29.23;16.27;;;15.00;99.90;;;;;;5071559;28;20204;-69
2022/06/09 07:30:07;;;;;;;27.53;17.17;;;15.00;99.90;;;;;;5072378;28;20209;-64
2022/06/09 07:32:33;;;;;;;35.00;18.37;;;15.00;99.90;;;;;;5071542;28;20741;-65
2022/06/09 07:35:00;;;;;;;31.57;18.37;;;15.00;99.90;;;;;;5071309;28;20270;-64
2022/06/09 07:37:28;;;;;;;31.53;17.17;;;15.10;99.90;;;;;;5072256;28;20262;-69
2022/06/09 07:39:55;;;;;;;27.13;16.13;;;15.00;99.90;;;;;;5071872;28;20208;-65
2022/06/09 07:42:22;;;;;;;29.03;15.67;;;15.00;99.90;;;;;;5072076;28;20208;-64
2022/06/09 07:44:49;;;;;;;28.00;16.20;;;14.90;99.90;;;;;;5071763;28;20648;-66
2022/06/09 07:47:16;;;;;;;32.97;17.53;;;14.90;99.90;;;;;;5071475;28;20209;-66
2022/06/09 07:49:42;;;;;;;37.57;19.33;;;15.00;99.90;;;;;;5072334;28;20648;-65
2022/06/09 07:52:09;;;;;;;26.23;18.07;;;15.10;99.90;;;;;;5071672;28;20618;-65
2022/06/09 07:54:37;;;;;;;30.13;17.63;;;15.20;99.90;;;;;;5071721;28;20270;-65
2022/06/09 07:57:04;;;;;;;31.43;18.03;;;15.20;99.90;;;;;;5071171;28;20213;-64
2022/06/09 07:59:31;;;;;;;33.63;17.00;;;15.20;99.90;;;;;;5071913;28;20213;-64
2022/06/09 08:01:58;;;;;;;35.10;18.77;;;15.20;99.90;;;;;;5071370;28;20205;-62
2022/06/09 08:04:24;;;;;;;31.03;18.23;;;15.20;99.90;;;;;;5072093;28;20270;-64
2022/06/09 08:06:52;;;;;;;38.40;18.07;;;15.30;99.90;;;;;;5071998;28;20201;-62
2022/06/09 08:09:19;;;;;;;29.70;17.17;;;15.30;99.90;;;;;;5071135;28;20573;-62
2022/06/09 08:11:47;;;;;;;33.97;17.77;;;15.30;99.90;;;;;;5071563;28;20227;-62
2022/06/09 08:14:14;;;;;;;27.37;17.17;;;15.30;99.90;;;;;;5070956;28;20734;-62
2022/06/09 08:16:43;;;;;;;28.67;15.00;;;15.20;99.90;;;;;;5070797;28;20220;-61
2022/06/09 08:19:10;;;;;;;28.20;16.47;;;15.30;99.90;;;;;;5071558;28;20219;-63
2022/06/09 08:21:37;;;;;;;26.67;15.97;;;15.30;99.90;;;;;;5070958;28;20205;-62
2022/06/09 08:24:05;;;;;;;26.57;16.83;;;15.40;99.90;;;;;;5071359;28;20237;-63
2022/06/09 08:26:31;;;;;;;26.17;16.67;;;15.40;99.90;;;;;;5070994;28;20204;-64
2022/06/09 08:29:01;;;;;;;24.03;15.13;;;15.40;99.90;;;;;;5070874;28;20559;-64
2022/06/09 08:31:27;;;;;;;26.63;16.77;;;15.50;99.90;;;;;;5071444;28;20212;-63
2022/06/09 08:33:54;;;;;;;29.27;16.23;;;15.60;99.90;;;;;;5070917;28;20254;-62
2022/06/09 08:36:21;;;;;;;27.07;16.50;;;15.70;99.90;;;;;;5070873;28;20627;-61
2022/06/09 08:38:48;;;;;;;23.57;15.37;;;16.00;99.90;;;;;;5070886;28;20205;-61
2022/06/09 08:41:33;;;;;;;25.27;15.67;;;16.10;99.90;;;;;;5070329;28;20212;-62
2022/06/09 08:44:11;;;;;;;26.53;16.97;;;16.40;99.90;;;;;;5071399;28;20271;-62
2022/06/09 08:46:46;;;;;;;30.20;16.13;;;16.60;99.90;;;;;;5071079;28;20208;-62
2022/06/09 08:49:28;;;;;;;31.67;18.20;;;16.80;99.90;;;;;;5071638;28;20212;-63
2022/06/09 08:52:00;;;;;;;25.03;16.33;;;16.90;99.90;;;;;;5070781;28;20232;-64
2022/06/09 08:54:30;;;;;;;25.73;15.83;;;17.10;99.90;;;;;;5071400;28;20225;-63
2022/06/09 08:57:01;;;;;;;26.87;17.10;;;17.30;99.90;;;;;;5070649;28;20205;-63
2022/06/09 08:59:36;;;;;;;23.67;16.67;;;17.50;99.90;;;;;;5070749;28;20675;-64
2022/06/09 09:02:13;;;;;;;27.23;16.93;;;17.60;99.90;;;;;;5071105;28;20230;-65
2022/06/09 09:04:45;;;;;;;25.33;17.67;;;17.70;99.90;;;;;;5070632;28;20228;-65
2022/06/09 09:07:16;;;;;;;27.70;18.90;;;17.70;99.90;;;;;;5070463;28;20204;-64
2022/06/09 09:09:45;;;;;;;26.13;17.87;;;17.80;99.90;;;;;;5070866;28;20278;-64
2022/06/09 09:12:18;;;;;;;28.33;19.03;;;17.80;99.90;;;;;;5071195;28;20205;-64
2022/06/09 09:14:54;;;;;;;25.93;16.23;;;17.70;99.90;;;;;;5070624;28;20220;-65
2022/06/09 09:17:26;;;;;;;30.17;17.17;;;17.70;99.90;;;;;;5071247;28;20353;-63
2022/06/09 09:20:01;;;;;;;27.40;16.93;;;17.80;99.90;;;;;;5072698;28;20208;-63
2022/06/09 09:22:37;;;;;;;25.77;17.60;;;17.80;99.90;;;;;;5074539;28;20212;-64
2022/06/09 09:25:18;;;;;;;25.40;17.23;;;17.90;99.90;;;;;;5075181;28;20285;-62
2022/06/09 09:27:49;;;;;;;22.63;15.67;;;18.30;99.90;;;;;;5074551;28;20253;-62
2022/06/09 09:30:21;;;;;;;24.77;17.20;;;18.50;99.90;;;;;;5076138;28;20209;-67
2022/06/09 09:32:50;;;;;;;26.53;17.00;;;18.60;99.90;;;;;;5075051;28;20209;-68
2022/06/09 09:35:21;;;;;;;24.20;15.83;;;18.80;99.90;;;;;;5074187;28;20270;-65
2022/06/09 09:37:50;;;;;;;26.53;16.70;;;18.90;99.90;;;;;;5074054;28;20205;-63
2022/06/09 09:40:26;;;;;;;25.47;16.50;;;18.80;99.90;;;;;;5074257;28;20262;-63
2022/06/09 09:42:56;;;;;;;24.90;16.30;;;18.70;99.90;;;;;;5074411;28;20204;-65
2022/06/09 09:45:33;;;;;;;22.70;16.47;;;18.60;99.90;;;;;;5073733;28;20282;-62
2022/06/09 09:48:02;;;;;;;24.57;16.83;;;18.90;99.90;;;;;;5074088;28;20258;-64
2022/06/09 09:50:35;;;;;;;20.13;14.80;;;19.00;71.00;;;;;;5074287;28;20212;-65
2022/06/09 09:53:05;;;;;;;18.80;15.90;;;18.90;90.80;;;;;;5074476;28;20209;-66
2022/06/09 09:55:36;;;;;;;22.77;15.63;;;19.30;99.90;;;;;;5074377;28;20707;-63
2022/06/09 09:58:17;;;;;;;19.77;15.00;;;19.40;99.90;;;;;;5073838;28;20205;-66
2022/06/09 10:00:47;;;;;;;20.83;15.23;;;19.50;29.30;;;;;;5074382;28;20246;-62
2022/06/09 10:08:53;;;;;;;20.50;14.50;;;19.10;99.90;;;;;;5073821;28;20208;-65
2022/06/09 10:14:32;;;;;;;16.47;11.50;;;19.30;99.90;;;;;;5066354;28;20278;-65
2022/06/09 10:17:02;;;;;;;20.37;11.97;;;19.20;99.90;;;;;;5073224;28;20227;-65
2022/06/09 10:19:32;;;;;;;20.87;12.50;;;19.00;99.90;;;;;;5073489;28;20251;-66
2022/06/09 10:22:02;;;;;;;19.00;11.87;;;18.70;99.90;;;;;;5073527;28;20204;-62
2022/06/09 10:24:36;;;;;;;16.10;10.70;;;18.60;99.90;;;;;;5073661;28;20224;-63
2022/06/09 10:27:05;;;;;;;15.03;11.37;;;18.60;99.90;;;;;;5072961;28;20258;-62
2022/06/09 10:29:43;;;;;;;14.60;11.13;;;18.70;1.00;;;;;;5073669;28;20216;-61
2022/06/09 10:32:19;;;;;;;13.17;10.77;;;19.00;1.00;;;;;;5072674;28;20208;-62
2022/06/09 10:34:53;;;;;;;13.33;8.77;;;19.10;99.90;;;;;;5072711;28;20232;-63
2022/06/09 10:37:25;;;;;;;15.80;10.47;;;19.30;1.00;;;;;;5073260;28;20205;-65
2022/06/09 10:39:58;;;;;;;12.57;9.80;;;19.00;99.90;;;;;;5073214;28;20304;-64
2022/06/09 10:42:30;;;;;;;12.17;8.50;;;18.70;99.90;;;;;;5072730;28;20678;-66
2022/06/09 10:45:18;;;;;;;12.40;9.20;;;18.80;1.00;;;;;;5072958;28;20232;-65
2022/06/09 10:56:32;;;;;;;14.13;7.43;;;18.60;99.90;;;;;;5073025;28;20610;-66
2022/06/09 10:59:06;;;;;;;10.57;6.73;;;18.70;99.90;;;;;;5072926;28;20201;-65
2022/06/09 11:01:34;;;;;;;8.17;6.37;;;18.90;1.00;;;;;;5072899;28;20218;-66
2022/06/09 11:04:06;;;;;;;10.10;5.67;;;19.00;1.00;;;;;;5072141;28;20726;-67
2022/06/09 11:06:54;;;;;;;9.77;5.60;;;19.20;1.00;;;;;;5072169;28;20209;-65
2022/06/09 11:09:27;;;;;;;7.40;5.50;;;19.20;99.90;;;;;;5072120;28;20209;-66
2022/06/09 11:12:05;;;;;;;9.60;6.07;;;19.50;1.00;;;;;;5072762;28;20209;-65
2022/06/09 11:14:43;;;;;;;8.97;6.37;;;19.70;1.00;;;;;;5072853;28;20744;-65
2022/06/09 11:17:38;;;;;;;10.17;7.00;;;19.60;1.00;;;;;;5072002;28;20250;-66
2022/06/09 11:20:20;;;;;;;9.43;6.90;;;19.50;1.00;;;;;;5070972;28;20803;-66
2022/06/09 11:22:54;;;;;;;9.10;5.20;;;19.40;1.00;;;;;;5071980;28;20209;-63
2022/06/09 11:25:32;;;;;;;6.20;4.63;;;19.30;99.90;;;;;;5072300;28;20236;-64
2022/06/09 11:28:24;;;;;;;10.53;4.60;;;19.10;99.90;;;;;;5071576;28;20209;-64
2022/06/09 11:31:13;;;;;;;5.97;3.70;;;19.20;93.40;;;;;;5068556;28;20209;-61
2022/06/09 11:33:57;;;;;;;5.03;2.87;;;19.40;99.90;;;;;;5071594;28;20296;-65
2022/06/09 11:36:32;;;;;;;6.93;3.10;;;19.50;1.00;;;;;;5071839;28;20204;-66
2022/06/09 11:39:13;;;;;;;7.07;3.30;;;19.40;1.00;;;;;;5071969;28;20205;-65
2022/06/09 11:41:45;;;;;;;6.37;2.47;;;19.40;1.00;;;;;;5071960;28;20556;-65
2022/06/09 11:44:24;;;;;;;2.87;1.40;;;19.30;99.90;;;;;;5071824;28;20622;-65
2022/06/09 11:46:53;;;;;;;3.07;1.57;;;19.40;99.90;;;;;;5071266;28;20258;-65
2022/06/09 11:49:24;;;;;;;3.87;1.70;;;19.60;99.90;;;;;;5072186;28;20648;-65
2022/06/09 11:51:54;;;;;;;4.03;2.03;;;19.70;99.90;;;;;;5071585;28;20205;-61
2022/06/09 11:54:59;;;;;;;2.60;1.70;;;19.80;1.00;;;;;;5071950;28;20272;-61
2022/06/09 11:57:47;;;;;;;5.27;2.37;;;19.70;1.00;;;;;;5028252;28;20214;-61
2022/06/09 12:00:39;;;;;;;3.73;2.80;;;19.70;1.00;;;;;;5070446;28;20205;-61
2022/06/09 12:03:53;;;;;;;6.73;3.23;;;20.00;1.00;;;;;;5071405;28;20217;-64
2022/06/09 12:06:26;;;;;;;7.20;3.00;;;20.30;1.00;;;;;;5043566;28;20367;-63
2022/06/09 12:09:09;;;;;;;8.70;3.47;;;20.50;1.00;;;;;;5071683;28;20630;-63
2022/06/09 12:11:58;;;;;;;9.47;4.60;;;20.20;1.00;;;;;;5071240;28;20687;-63
2022/06/09 12:14:29;;;;;;;16.17;5.57;;;19.80;99.90;;;;;;5071885;28;20236;-67
2022/06/09 12:17:05;;;;;;;7.53;5.57;;;19.50;96.50;;;;;;5070829;28;20231;-65
2022/06/09 12:19:35;;;;;;;9.00;6.50;;;19.30;99.90;;;;;;5071959;28;20291;-65
2022/06/09 12:22:34;;;;;;;5.50;2.70;;;19.00;64.50;;;;;;5071233;28;20633;-64
2022/06/09 12:25:21;;;;;;;1.83;1.53;;;17.70;1.00;;;;;;5071480;28;20233;-63
2022/06/09 12:27:50;;;;;;;3.63;1.70;;;16.60;93.70;;;;;;5070849;28;20204;-63
2022/06/09 12:30:35;;;;;;;3.17;1.87;;;15.90;82.40;;;;;;5071505;28;20232;-63
2022/06/09 12:33:30;;;;;;;9.50;1.87;;;15.50;1.00;;;;;;5070963;28;20212;-63
2022/06/09 12:36:02;;;;;;;3.03;1.80;;;15.10;92.50;;;;;;5070687;28;20236;-65
2022/06/09 12:38:32;;;;;;;4.20;1.70;;;14.70;99.90;;;;;;5071260;28;20667;-62
2022/06/09 12:41:08;;;;;;;3.73;1.80;;;14.50;99.90;;;;;;5070691;28;20212;-62
2022/06/09 12:43:38;;;;;;;5.33;1.80;;;14.50;99.90;;;;;;5071652;28;20208;-64
2022/06/09 12:46:21;;;;;;;1.47;1.37;;;14.50;99.90;;;;;;5070886;28;20225;-64
2022/06/09 12:48:50;;;;;;;3.43;1.50;;;14.50;99.90;;;;;;5070302;28;20201;-63
2022/06/09 12:51:22;;;;;;;1.90;1.30;;;14.40;99.90;;;;;;5070747;28;20217;-63
2022/06/09 12:54:00;;;;;;;2.83;1.60;;;14.30;99.90;;;;;;5070632;28;20208;-63
2022/06/09 12:56:35;;;;;;;1.87;1.40;;;14.30;99.90;;;;;;5069683;28;20207;-62
2022/06/09 12:59:16;;;;;;;2.20;1.50;;;14.40;99.90;;;;;;5070772;28;20585;-62
2022/06/09 13:01:52;;;;;;;1.70;1.40;;;14.30;99.90;;;;;;5070960;28;20208;-62
2022/06/09 13:04:18;;;;;;;1.60;1.50;;;14.40;99.90;;;;;;5071098;28;20301;-62
2022/06/09 13:06:47;;;;;;;4.17;1.80;;;14.40;99.90;;;;;;5070822;28;20220;-62
2022/06/09 13:09:19;;;;;;;2.30;2.10;;;14.60;99.90;;;;;;5071129;28;20205;-61
2022/06/09 13:14:34;;;;;;;3.63;1.87;;;14.90;99.90;;;;;;5070600;28;20231;-62
2022/06/09 13:17:07;;;;;;;1.93;1.60;;;15.00;99.90;;;;;;5070257;28;20261;-62
2022/06/09 13:19:36;;;;;;;4.63;2.00;;;15.10;99.90;;;;;;5070966;28;20205;-64
2022/06/09 13:22:07;;;;;;;2.30;2.10;;;15.00;99.90;;;;;;5070391;28;20205;-64
2022/06/09 13:24:36;;;;;;;2.87;2.03;;;15.10;99.90;;;;;;5071002;28;20220;-64